Time;durP1;ratioP1;P1;durP2;ratioP2;P2;SDS_P1;SDS_P2;PMS_P1;PMS_P2;Temp;Humidity;BMP_temperature;BMP_pressure;BME280_temperature;BME280_humidity;BME280_pressure;Samples;Min_cycle;Max_cycle;Signal;HPM_P1;HPM_P2
2023/08/02 00:02:14;;;;;;;1999.90;999.90;;;;;;;16.18;100.00;93757.69;5024372;28;20186;-61
2023/08/02 00:04:41;;;;;;;1999.90;999.90;;;;;;;16.17;100.00;93756.91;5024396;28;20215;-62
2023/08/02 00:07:06;;;;;;;1999.90;999.90;;;;;;;16.15;100.00;93750.38;5024916;28;20175;-62
2023/08/02 00:09:32;;;;;;;1999.90;999.90;;;;;;;16.15;100.00;93728.34;5024725;28;20194;-62
2023/08/02 00:11:58;;;;;;;1999.90;999.90;;;;;;;16.12;100.00;93721.81;5024754;28;20195;-61
2023/08/02 00:14:24;;;;;;;1999.90;999.90;;;;;;;16.10;100.00;93713.25;5024779;28;20201;-63
2023/08/02 00:16:49;;;;;;;1999.90;999.90;;;;;;;16.05;100.00;93702.91;5024519;28;20199;-62
2023/08/02 00:19:14;;;;;;;1999.90;999.90;;;;;;;16.05;100.00;93689.16;5024151;28;20199;-62
2023/08/02 00:21:40;;;;;;;1999.90;999.90;;;;;;;16.01;100.00;93683.09;5024630;28;20197;-62
2023/08/02 00:24:06;;;;;;;1999.90;999.90;;;;;;;16.01;100.00;93674.84;5023881;28;20237;-62
2023/08/02 00:26:31;;;;;;;1999.90;999.90;;;;;;;15.96;100.00;93666.50;5024126;28;20195;-61
2023/08/02 00:28:57;;;;;;;1999.90;999.90;;;;;;;15.94;100.00;93661.47;5024016;28;20195;-61
2023/08/02 00:31:22;;;;;;;1999.90;999.90;;;;;;;15.93;100.00;93653.69;5024321;28;20274;-61
2023/08/02 00:33:47;;;;;;;1999.90;999.90;;;;;;;15.87;100.00;93656.34;5024212;28;20195;-61
2023/08/02 00:36:13;;;;;;;1999.90;999.90;;;;;;;15.84;100.00;93660.06;5023845;28;20202;-61
2023/08/02 00:38:38;;;;;;;1999.90;999.90;;;;;;;15.79;100.00;93660.75;5024421;28;20208;-60
2023/08/02 00:41:05;;;;;;;1999.90;999.90;;;;;;;15.77;100.00;93657.69;5024207;28;20190;-61
2023/08/02 00:43:41;;;;;;;1999.90;999.90;;;;;;;15.75;100.00;93662.94;5024291;28;20195;-62
2023/08/02 00:46:08;;;;;;;1999.90;999.90;;;;;;;15.77;100.00;93663.22;5024274;28;20203;-62
2023/08/02 00:48:34;;;;;;;1999.90;999.90;;;;;;;15.73;100.00;93672.88;5023830;28;20266;-60
2023/08/02 00:51:01;;;;;;;1999.90;999.90;;;;;;;15.70;100.00;93669.09;5024088;28;20210;-61
2023/08/02 00:53:26;;;;;;;1999.90;999.90;;;;;;;15.66;100.00;93663.03;5023853;28;20191;-61
2023/08/02 00:55:52;;;;;;;1999.90;999.90;;;;;;;15.64;100.00;93671.03;5023906;28;20202;-61
2023/08/02 00:58:17;;;;;;;1999.90;999.90;;;;;;;15.61;100.00;93677.50;5023992;28;20195;-62
2023/08/02 01:00:42;;;;;;;1999.90;999.90;;;;;;;15.56;100.00;93675.38;5023900;28;20195;-62
2023/08/02 01:03:08;;;;;;;1999.90;999.90;;;;;;;15.54;100.00;93677.09;5023808;28;20221;-62
2023/08/02 01:05:42;;;;;;;1999.90;999.90;;;;;;;15.53;100.00;93687.38;5023593;28;20218;-60
2023/08/02 01:08:14;;;;;;;1999.90;999.90;;;;;;;15.48;100.00;93690.78;5023875;28;20266;-61
2023/08/02 01:10:49;;;;;;;1999.90;999.90;;;;;;;15.43;100.00;93688.72;5024065;28;20222;-61
2023/08/02 01:13:15;;;;;;;1999.90;999.90;;;;;;;15.42;100.00;93692.69;5024723;28;20198;-62
2023/08/02 01:15:41;;;;;;;1999.90;999.90;;;;;;;15.39;100.00;93701.13;5027476;28;20195;-61
2023/08/02 01:18:08;;;;;;;1999.90;999.90;;;;;;;15.36;100.00;93705.59;5027406;28;20266;-61
2023/08/02 01:20:33;;;;;;;1999.90;999.90;;;;;;;15.32;100.00;93705.00;5027811;28;20234;-61
2023/08/02 01:22:58;;;;;;;1999.90;999.90;;;;;;;15.30;100.00;93707.44;5027726;28;20202;-61
2023/08/02 01:25:26;;;;;;;1999.90;999.90;;;;;;;15.30;100.00;93701.94;5027255;28;20218;-62
2023/08/02 01:27:58;;;;;;;1999.90;999.90;;;;;;;15.28;100.00;93701.69;5027570;28;20229;-61
2023/08/02 01:30:30;;;;;;;1999.90;999.90;;;;;;;15.24;100.00;93703.88;5027420;28;20222;-61
2023/08/02 01:32:56;;;;;;;1999.90;999.90;;;;;;;15.21;100.00;93701.28;5027326;28;20222;-62
2023/08/02 01:35:22;;;;;;;1999.90;999.90;;;;;;;15.20;100.00;93697.78;5027177;28;20262;-63
2023/08/02 01:37:48;;;;;;;1999.90;999.90;;;;;;;15.19;100.00;93693.50;5026901;28;20226;-62
2023/08/02 01:40:13;;;;;;;1999.90;999.90;;;;;;;15.19;100.00;93679.75;5027058;28;20198;-62
2023/08/02 01:42:39;;;;;;;1999.90;999.90;;;;;;;15.16;100.00;93672.44;5026973;28;20199;-62
2023/08/02 01:45:05;;;;;;;1999.90;999.90;;;;;;;15.13;100.00;93662.44;5027059;28;20277;-63
2023/08/02 01:47:30;;;;;;;1999.90;999.90;;;;;;;15.12;100.00;93646.41;5026785;28;20234;-65
2023/08/02 01:49:55;;;;;;;1999.90;999.90;;;;;;;15.06;100.00;93627.06;5027087;28;20195;-62
2023/08/02 01:52:21;;;;;;;1999.90;999.90;;;;;;;15.01;100.00;93602.97;5026781;28;20202;-62
2023/08/02 01:54:46;;;;;;;1999.90;999.90;;;;;;;14.96;100.00;93594.63;5026831;28;20218;-62
2023/08/02 01:57:12;;;;;;;1999.90;999.90;;;;;;;14.93;100.00;93571.59;5026842;28;20209;-63
2023/08/02 01:59:37;;;;;;;1999.90;999.90;;;;;;;14.91;100.00;93560.34;5027313;28;20182;-64
2023/08/02 02:02:02;;;;;;;1999.90;999.90;;;;;;;14.85;100.00;93551.22;5027027;28;20238;-64
2023/08/02 02:04:28;;;;;;;1999.90;999.90;;;;;;;14.82;100.00;93534.94;5027200;28;20215;-64
2023/08/02 02:06:53;;;;;;;1999.90;999.90;;;;;;;14.79;100.00;93519.41;5026556;28;20270;-63
2023/08/02 02:09:19;;;;;;;1999.90;999.90;;;;;;;14.70;100.00;93512.00;5026792;28;20203;-63
2023/08/02 02:11:44;;;;;;;1999.90;999.90;;;;;;;14.65;100.00;93501.69;5026745;28;20231;-64
2023/08/02 02:14:09;;;;;;;1999.90;999.90;;;;;;;14.55;100.00;93478.31;5026516;28;20205;-64
2023/08/02 02:16:35;;;;;;;1999.90;999.90;;;;;;;14.46;100.00;93470.16;5026431;28;20263;-64
2023/08/02 02:19:00;;;;;;;1999.90;999.90;;;;;;;14.39;100.00;93448.56;5026498;28;20191;-64
2023/08/02 02:21:26;;;;;;;1999.90;999.90;;;;;;;14.34;100.00;93430.00;5026420;28;20249;-62
2023/08/02 02:23:52;;;;;;;1999.90;999.90;;;;;;;14.34;100.00;93413.53;5026052;28;20206;-62
2023/08/02 02:26:17;;;;;;;1999.90;999.90;;;;;;;14.29;100.00;93410.72;5025367;28;20199;-62
2023/08/02 02:28:42;;;;;;;1999.90;999.90;;;;;;;14.24;100.00;93406.63;5026587;28;20271;-62
2023/08/02 02:31:08;;;;;;;1999.90;999.90;;;;;;;14.19;100.00;93395.53;5025930;28;20179;-62
2023/08/02 02:33:33;;;;;;;1999.90;999.90;;;;;;;14.17;100.00;93356.81;5025925;28;20202;-62
2023/08/02 02:35:58;;;;;;;1999.90;999.90;;;;;;;14.11;100.00;93358.72;5025775;28;20223;-62
2023/08/02 02:38:24;;;;;;;1999.90;999.90;;;;;;;14.06;100.00;93359.41;5026426;28;20202;-60
2023/08/02 02:40:49;;;;;;;1999.90;999.90;;;;;;;14.05;100.00;93360.59;5026169;28;20195;-61
2023/08/02 02:43:14;;;;;;;1999.90;999.90;;;;;;;14.03;100.00;93344.63;5026119;28;20206;-62
2023/08/02 02:45:40;;;;;;;1999.90;999.90;;;;;;;14.00;100.00;93322.88;5025793;28;20214;-62
2023/08/02 02:48:05;;;;;;;1999.90;999.90;;;;;;;13.97;100.00;93335.56;5025881;28;20202;-62
2023/08/02 02:50:30;;;;;;;1999.90;999.90;;;;;;;13.96;100.00;93316.81;5025649;28;20191;-62
2023/08/02 02:52:56;;;;;;;1999.90;999.90;;;;;;;13.96;100.00;93305.84;5025655;28;20199;-63
2023/08/02 02:55:21;;;;;;;1999.90;999.90;;;;;;;13.94;100.00;93298.06;5025514;28;20198;-63
2023/08/02 02:57:46;;;;;;;1999.90;999.90;;;;;;;13.87;100.00;93292.97;5025862;28;20207;-62
2023/08/02 03:00:12;;;;;;;1999.90;999.90;;;;;;;13.80;100.00;93293.34;5025981;28;20206;-63
2023/08/02 03:02:37;;;;;;;1999.90;999.90;;;;;;;13.74;100.00;93306.25;5026051;28;20179;-60
2023/08/02 03:05:03;;;;;;;1999.90;999.90;;;;;;;13.71;100.00;93312.69;5025829;28;20215;-62
2023/08/02 03:07:28;;;;;;;1999.90;999.90;;;;;;;13.70;100.00;93286.50;5025881;28;20206;-61
2023/08/02 03:09:54;;;;;;;1999.90;999.90;;;;;;;13.67;100.00;93284.69;5025424;28;20198;-61
2023/08/02 03:12:19;;;;;;;1999.90;999.90;;;;;;;13.64;100.00;93284.88;5025805;28;20195;-62
2023/08/02 03:14:47;;;;;;;1999.90;999.90;;;;;;;13.59;100.00;93286.31;5025243;28;20199;-62
2023/08/02 03:17:12;;;;;;;1999.90;999.90;;;;;;;13.50;100.00;93291.88;5025385;28;20198;-62
2023/08/02 03:19:37;;;;;;;1999.90;999.90;;;;;;;13.45;100.00;93283.53;5025525;28;20207;-61
2023/08/02 03:22:03;;;;;;;1999.90;999.90;;;;;;;13.39;100.00;93288.94;5025712;28;20201;-61
2023/08/02 03:24:29;;;;;;;1999.90;999.90;;;;;;;13.38;100.00;93281.94;5025220;28;20214;-61
2023/08/02 03:26:54;;;;;;;1999.90;999.90;;;;;;;13.41;100.00;93278.25;5025294;28;20241;-62
2023/08/02 03:29:19;;;;;;;1999.90;999.90;;;;;;;13.44;100.00;93288.25;5024898;28;20206;-62
2023/08/02 03:31:45;;;;;;;1999.90;999.90;;;;;;;13.41;100.00;93297.47;5024953;28;20195;-62
2023/08/02 03:34:10;;;;;;;1999.90;999.90;;;;;;;13.41;100.00;93299.44;5025224;28;20167;-62
2023/08/02 03:36:36;;;;;;;1999.90;999.90;;;;;;;13.40;100.00;93298.66;5024955;28;20195;-62
2023/08/02 03:39:01;;;;;;;1999.90;999.90;;;;;;;13.41;100.00;93305.69;5025332;28;20198;-62
2023/08/02 03:41:27;;;;;;;1999.90;999.90;;;;;;;13.35;100.00;93307.56;5024787;28;20218;-61
2023/08/02 03:43:52;;;;;;;1999.90;999.90;;;;;;;13.38;100.00;93318.31;5025296;28;20191;-61
2023/08/02 03:46:17;;;;;;;1999.90;999.90;;;;;;;13.38;100.00;93316.81;5025033;28;20210;-61
2023/08/02 03:48:43;;;;;;;1999.90;999.90;;;;;;;13.43;100.00;93327.88;5024860;28;20258;-61
2023/08/02 03:51:08;;;;;;;1999.90;999.90;;;;;;;13.44;100.00;93315.69;5024613;28;20191;-61
2023/08/02 03:53:33;;;;;;;1999.90;999.90;;;;;;;13.46;100.00;93318.72;5024391;28;20218;-61
2023/08/02 03:55:59;;;;;;;1999.90;999.90;;;;;;;13.47;100.00;93314.75;5024783;28;20202;-62
2023/08/02 03:58:24;;;;;;;1999.90;999.90;;;;;;;13.45;100.00;93317.22;5024916;28;20186;-61
2023/08/02 04:00:51;;;;;;;1999.90;999.90;;;;;;;13.43;100.00;93314.19;5025203;28;20202;-61
2023/08/02 04:03:16;;;;;;;1999.90;999.90;;;;;;;13.45;100.00;93311.72;5024294;28;20198;-62
2023/08/02 04:05:41;;;;;;;1999.90;999.90;;;;;;;13.66;100.00;93299.59;5024517;28;20199;-61
2023/08/02 04:08:07;;;;;;;1999.90;999.90;;;;;;;13.82;100.00;93296.41;5024649;28;20218;-62
2023/08/02 04:10:38;;;;;;;1999.90;999.90;;;;;;;13.96;100.00;93295.63;5024477;28;20241;-61
2023/08/02 04:13:04;;;;;;;1999.90;999.90;;;;;;;14.11;100.00;93295.59;5024266;28;20271;-61
2023/08/02 04:15:34;;;;;;;1999.90;999.90;;;;;;;14.41;100.00;93284.06;5024626;28;20195;-62
2023/08/02 04:17:59;;;;;;;1999.90;999.90;;;;;;;14.60;100.00;93282.56;5024032;28;20191;-62
2023/08/02 04:20:25;;;;;;;1999.90;999.90;;;;;;;14.81;100.00;93292.34;5024155;28;20202;-62
2023/08/02 04:22:50;;;;;;;1999.90;999.90;;;;;;;14.92;100.00;93328.19;5024248;28;20214;-62
2023/08/02 04:25:16;;;;;;;1999.90;999.90;;;;;;;15.11;100.00;93372.66;5024486;28;20207;-63
2023/08/02 04:27:42;;;;;;;1999.90;999.90;;;;;;;15.60;100.00;93438.56;5024036;28;20203;-63
2023/08/02 04:30:08;;;;;;;1999.90;999.90;;;;;;;16.00;100.00;93585.19;5024373;28;20206;-62
2023/08/02 04:32:33;;;;;;;1999.90;999.90;;;;;;;16.33;100.00;93730.84;5023877;28;20197;-63
2023/08/02 04:34:59;;;;;;;1999.90;999.90;;;;;;;16.55;100.00;93880.00;5024449;28;20206;-63
2023/08/02 04:37:24;;;;;;;1999.90;999.90;;;;;;;16.80;100.00;93992.44;5024326;28;20187;-62
2023/08/02 04:39:49;;;;;;;1999.90;999.90;;;;;;;17.22;100.00;94075.59;5023942;28;20202;-61
2023/08/02 04:42:16;;;;;;;1999.90;999.90;;;;;;;17.47;100.00;94152.31;5023883;28;20214;-61
2023/08/02 04:44:41;;;;;;;1999.90;999.90;;;;;;;17.84;100.00;94202.34;5023805;28;20211;-61
2023/08/02 04:47:07;;;;;;;1999.90;999.90;;;;;;;17.68;100.00;94260.84;5023831;28;20194;-61
2023/08/02 04:49:32;;;;;;;1999.90;999.90;;;;;;;17.36;100.00;94275.53;5027328;28;20226;-61
2023/08/02 04:51:57;;;;;;;1999.90;999.90;;;;;;;17.04;100.00;94255.13;5028061;28;20258;-61
2023/08/02 04:54:22;;;;;;;1999.90;999.90;;;;;;;16.85;100.00;94239.19;5028050;28;20198;-62
2023/08/02 04:56:48;;;;;;;1999.90;999.90;;;;;;;16.63;100.00;94205.66;5027930;28;20195;-61
2023/08/02 04:59:13;;;;;;;1999.90;999.90;;;;;;;16.71;100.00;94182.03;5028039;28;20204;-61
2023/08/02 05:01:39;;;;;;;1999.90;999.90;;;;;;;16.34;100.00;94138.19;5027773;28;20201;-61
2023/08/02 05:04:07;;;;;;;1999.90;999.90;;;;;;;16.18;100.00;94093.75;5028005;28;20209;-61
2023/08/02 05:06:33;;;;;;;1999.90;999.90;;;;;;;16.00;100.00;94045.06;5027644;28;20226;-62
2023/08/02 05:08:59;;;;;;;1999.90;999.90;;;;;;;15.97;100.00;94001.97;5028206;28;20207;-62
2023/08/02 05:11:24;;;;;;;1999.90;999.90;;;;;;;15.97;100.00;93979.94;5027737;28;20210;-61
2023/08/02 05:13:49;;;;;;;1999.90;999.90;;;;;;;15.86;100.00;93985.22;5027833;28;20205;-57
2023/08/02 05:16:15;;;;;;;1999.90;999.90;;;;;;;15.87;100.00;93964.72;5027366;28;20199;-57
2023/08/02 05:18:41;;;;;;;1999.90;999.90;;;;;;;15.90;100.00;93952.00;5027679;28;20218;-57
2023/08/02 05:21:13;;;;;;;1999.90;999.90;;;;;;;15.88;100.00;93949.72;5027485;28;20278;-58
2023/08/02 05:23:39;;;;;;;1999.90;999.90;;;;;;;15.71;100.00;93951.41;5027933;28;20273;-62
2023/08/02 05:26:06;;;;;;;1999.90;999.90;;;;;;;15.75;100.00;93932.69;5027104;28;20219;-60
2023/08/02 05:28:31;;;;;;;1999.90;999.90;;;;;;;15.83;100.00;93931.09;5027408;28;20199;-61
2023/08/02 05:30:56;;;;;;;1999.90;999.90;;;;;;;15.93;100.00;93924.28;5027377;28;20203;-62
2023/08/02 05:33:22;;;;;;;1999.90;999.90;;;;;;;16.09;100.00;93926.56;5027554;28;20189;-61
2023/08/02 05:35:47;;;;;;;1999.90;999.90;;;;;;;16.25;100.00;93956.38;5027014;28;20195;-61
2023/08/02 05:38:12;;;;;;;1999.90;999.90;;;;;;;16.42;100.00;93998.81;5026839;28;20198;-61
2023/08/02 05:40:38;;;;;;;1999.90;999.90;;;;;;;16.48;100.00;94031.22;5026891;28;20208;-61
2023/08/02 05:43:03;;;;;;;1999.90;999.90;;;;;;;16.50;100.00;94042.53;5027129;28;20195;-62
2023/08/02 05:45:28;;;;;;;1999.90;999.90;;;;;;;16.59;100.00;94050.72;5026875;28;20211;-61
2023/08/02 05:47:54;;;;;;;1999.90;999.90;;;;;;;16.54;100.00;94065.94;5027245;28;20191;-61
2023/08/02 05:50:19;;;;;;;1999.90;999.90;;;;;;;16.55;100.00;94072.97;5026823;28;20234;-61
2023/08/02 05:52:44;;;;;;;1999.90;999.90;;;;;;;16.57;100.00;94066.97;5026854;28;20199;-61
2023/08/02 05:55:10;;;;;;;1999.90;999.90;;;;;;;16.37;100.00;94068.34;5026662;28;20278;-61
2023/08/02 05:57:35;;;;;;;1999.90;999.90;;;;;;;16.31;100.00;94044.66;5026493;28;20237;-62
2023/08/02 06:00:01;;;;;;;1999.90;999.90;;;;;;;16.34;100.00;94029.94;5026408;28;20206;-61
2023/08/02 06:02:26;;;;;;;1999.90;999.90;;;;;;;16.43;100.00;94016.88;5026743;28;20190;-62
2023/08/02 06:04:51;;;;;;;1999.90;999.90;;;;;;;16.46;100.00;94030.94;5026357;28;20293;-62
2023/08/02 06:07:17;;;;;;;1999.90;999.90;;;;;;;16.42;100.00;94023.63;5026773;28;20281;-62
2023/08/02 06:09:42;;;;;;;1999.90;999.90;;;;;;;16.43;100.00;94021.63;5026584;28;20199;-62
2023/08/02 06:12:08;;;;;;;1999.90;999.90;;;;;;;16.32;100.00;94016.63;5026790;28;20230;-63
2023/08/02 06:14:33;;;;;;;1999.90;999.90;;;;;;;16.46;100.00;94019.91;5026318;28;20195;-62
2023/08/02 06:16:58;;;;;;;1999.90;999.90;;;;;;;16.52;100.00;94023.50;5026257;28;20278;-63
2023/08/02 06:19:24;;;;;;;1999.90;999.90;;;;;;;16.63;100.00;94034.72;5026209;28;20217;-61
2023/08/02 06:21:49;;;;;;;1999.90;999.90;;;;;;;16.62;100.00;94055.28;5026025;28;20210;-61
2023/08/02 06:24:15;;;;;;;1999.90;999.90;;;;;;;16.64;100.00;94058.34;5026861;28;20206;-60
2023/08/02 06:26:40;;;;;;;1999.90;999.90;;;;;;;16.65;100.00;94066.13;5026134;28;20195;-61
2023/08/02 06:29:08;;;;;;;1999.90;999.90;;;;;;;16.68;100.00;94097.50;5026004;28;20198;-61
2023/08/02 06:31:33;;;;;;;1999.90;999.90;;;;;;;16.70;100.00;94090.28;5026504;28;20197;-63
2023/08/02 06:33:58;;;;;;;1999.90;999.90;;;;;;;16.75;100.00;94081.31;5025996;28;20198;-62
2023/08/02 06:36:24;;;;;;;1999.90;999.90;;;;;;;16.84;100.00;94080.47;5025896;28;20176;-62
2023/08/02 06:38:49;;;;;;;1999.90;999.90;;;;;;;16.79;100.00;94089.44;5026205;28;20206;-65
2023/08/02 06:41:14;;;;;;;1999.90;999.90;;;;;;;16.79;100.00;94097.69;5026080;28;20191;-63
2023/08/02 06:43:40;;;;;;;1999.90;999.90;;;;;;;16.74;100.00;94079.81;5026325;28;20222;-63
2023/08/02 06:46:05;;;;;;;1999.90;999.90;;;;;;;16.83;100.00;94076.22;5026052;28;20213;-62
2023/08/02 06:48:31;;;;;;;1999.90;999.90;;;;;;;16.87;100.00;94043.69;5025973;28;20203;-63
2023/08/02 06:50:56;;;;;;;1999.90;999.90;;;;;;;16.79;100.00;94020.50;5026321;28;20191;-62
2023/08/02 06:53:22;;;;;;;1999.90;999.90;;;;;;;16.73;100.00;93972.75;5025812;28;20202;-62
2023/08/02 06:55:47;;;;;;;1999.90;999.90;;;;;;;16.70;100.00;93937.88;5025446;28;20241;-61
2023/08/02 06:58:13;;;;;;;1999.90;999.90;;;;;;;16.68;100.00;93887.97;5025499;28;20205;-61
2023/08/02 07:00:42;;;;;;;1999.90;999.90;;;;;;;16.63;100.00;93833.50;5025561;28;20198;-60
2023/08/02 07:03:07;;;;;;;1999.90;999.90;;;;;;;16.57;100.00;93811.38;5025883;28;20230;-60
2023/08/02 07:05:34;;;;;;;1999.90;999.90;;;;;;;16.58;100.00;93751.50;5025569;28;20245;-63
2023/08/02 07:08:01;;;;;;;1999.90;999.90;;;;;;;16.52;100.00;93698.28;5025858;28;20217;-59
2023/08/02 07:10:27;;;;;;;1999.90;999.90;;;;;;;16.47;100.00;93657.66;5024752;28;20191;-60
2023/08/02 07:12:53;;;;;;;1999.90;999.90;;;;;;;16.42;100.00;93589.47;5025389;28;20206;-61
2023/08/02 07:15:19;;;;;;;1999.90;999.90;;;;;;;16.36;100.00;93521.22;5025131;28;20199;-60
2023/08/02 07:17:45;;;;;;;1999.90;999.90;;;;;;;16.40;100.00;93433.59;5025889;28;20198;-60
2023/08/02 07:20:11;;;;;;;1999.90;999.90;;;;;;;16.42;100.00;93367.78;5025271;28;20203;-60
2023/08/02 07:22:37;;;;;;;1999.90;999.90;;;;;;;16.43;100.00;93299.66;5025133;28;20195;-59
2023/08/02 07:25:02;;;;;;;1999.90;999.90;;;;;;;16.53;100.00;93231.31;5025186;28;20282;-59
2023/08/02 07:27:28;;;;;;;1999.90;999.90;;;;;;;16.54;100.00;93199.75;5025180;28;20245;-61
2023/08/02 07:29:56;;;;;;;1999.90;999.90;;;;;;;16.48;100.00;93185.19;5025435;28;20199;-58
2023/08/02 07:32:21;;;;;;;1999.90;999.90;;;;;;;16.49;100.00;93164.69;5025043;28;20218;-59
2023/08/02 07:34:47;;;;;;;1999.90;999.90;;;;;;;16.55;100.00;93152.41;5024983;28;20201;-59
2023/08/02 07:37:12;;;;;;;1999.90;999.90;;;;;;;16.57;100.00;93127.13;5024898;28;20186;-60
2023/08/02 07:39:38;;;;;;;1999.90;999.90;;;;;;;16.80;100.00;93103.88;5025211;28;20229;-59
2023/08/02 07:42:04;;;;;;;1999.90;999.90;;;;;;;16.99;100.00;93093.84;5024569;28;20194;-59
2023/08/02 07:44:29;;;;;;;1999.90;999.90;;;;;;;17.22;100.00;93076.81;5024935;28;20214;-59
2023/08/02 07:46:54;;;;;;;1999.90;999.90;;;;;;;17.42;100.00;93078.59;5024648;28;20195;-59
2023/08/02 07:49:20;;;;;;;1999.90;999.90;;;;;;;17.53;100.00;93073.06;5024601;28;20234;-59
2023/08/02 07:51:45;;;;;;;1999.90;999.90;;;;;;;17.48;100.00;93104.19;5024664;28;20209;-58
2023/08/02 07:54:10;;;;;;;1999.90;999.90;;;;;;;17.53;100.00;93106.94;5025042;28;20202;-58
2023/08/02 07:56:36;;;;;;;1999.90;999.90;;;;;;;17.47;100.00;93108.19;5024486;28;20204;-59
2023/08/02 07:59:01;;;;;;;1999.90;999.90;;;;;;;17.38;100.00;93141.53;5024630;28;20195;-58
2023/08/02 08:01:26;;;;;;;1999.90;999.90;;;;;;;17.32;100.00;93135.25;5024699;28;20198;-59
2023/08/02 08:03:52;;;;;;;1999.90;999.90;;;;;;;17.42;100.00;93128.28;5024737;28;20194;-59
2023/08/02 08:06:23;;;;;;;1999.90;999.90;;;;;;;17.38;100.00;93138.78;5024324;28;20242;-59
2023/08/02 08:08:49;;;;;;;1999.90;999.90;;;;;;;17.41;100.00;93129.50;5025112;28;20227;-59
2023/08/02 08:11:14;;;;;;;1999.90;999.90;;;;;;;17.34;100.00;93135.53;5024836;28;20191;-59
2023/08/02 08:13:40;;;;;;;1999.90;999.90;;;;;;;17.38;100.00;93122.22;5024096;28;20195;-59
2023/08/02 08:16:05;;;;;;;1999.90;999.90;;;;;;;17.40;100.00;93128.75;5024284;28;20219;-59
2023/08/02 08:18:32;;;;;;;1999.90;999.90;;;;;;;17.51;100.00;93114.19;5024408;28;20199;-59
2023/08/02 08:21:01;;;;;;;1999.90;999.90;;;;;;;17.53;100.00;93111.72;5024523;28;20232;-59
2023/08/02 08:23:27;;;;;;;1999.90;999.90;;;;;;;17.48;100.00;93127.00;5023959;28;20195;-59
2023/08/02 08:25:53;;;;;;;1999.90;999.90;;;;;;;17.49;100.00;93116.72;5024284;28;20234;-60
2023/08/02 08:28:19;;;;;;;1999.90;999.90;;;;;;;17.35;100.00;93134.25;5024027;28;20195;-59
2023/08/02 08:30:44;;;;;;;1999.90;999.90;;;;;;;17.36;100.00;93119.97;5024101;28;20266;-59
2023/08/02 08:33:10;;;;;;;1999.90;999.90;;;;;;;17.35;100.00;93106.66;5024425;28;20238;-60
2023/08/02 08:35:35;;;;;;;1999.90;999.90;;;;;;;17.40;100.00;93086.59;5024584;28;20274;-60
2023/08/02 08:38:02;;;;;;;1999.90;999.90;;;;;;;17.43;100.00;93074.56;5024145;28;20202;-58
2023/08/02 08:40:28;;;;;;;1999.90;999.90;;;;;;;17.46;100.00;93057.78;5024282;28;20218;-58
2023/08/02 08:42:55;;;;;;;1999.90;999.90;;;;;;;17.47;100.00;93047.47;5023777;28;20194;-58
2023/08/02 08:45:25;;;;;;;1999.90;999.90;;;;;;;17.33;100.00;93054.00;5024001;28;20210;-60
2023/08/02 08:47:52;;;;;;;1999.90;999.90;;;;;;;17.19;100.00;93060.53;5023796;28;20209;-59
2023/08/02 08:50:19;;;;;;;1999.90;999.90;;;;;;;17.12;100.00;93067.28;5023909;28;20281;-59
2023/08/02 08:52:46;;;;;;;1999.90;999.90;;;;;;;17.08;100.00;93066.78;5023883;28;20225;-59
2023/08/02 08:55:16;;;;;;;1999.90;999.90;;;;;;;17.24;100.00;93048.72;5023511;28;20201;-59
2023/08/02 08:57:43;;;;;;;1999.90;999.90;;;;;;;17.27;100.00;93040.22;5023650;28;20211;-60
2023/08/02 09:00:10;;;;;;;1999.90;999.90;;;;;;;17.34;100.00;93039.69;5023985;28;20191;-59
2023/08/02 09:02:38;;;;;;;1999.90;999.90;;;;;;;17.38;100.00;93045.72;5024121;28;20187;-60
2023/08/02 09:05:03;;;;;;;1999.90;999.90;;;;;;;17.35;100.00;93051.47;5024074;28;20195;-59
2023/08/02 09:07:30;;;;;;;1999.90;999.90;;;;;;;17.42;100.00;93039.97;5023993;28;20205;-59
2023/08/02 09:09:55;;;;;;;1999.90;999.90;;;;;;;17.59;100.00;93021.38;5023926;28;20230;-59
2023/08/02 09:12:23;;;;;;;1999.90;999.90;;;;;;;17.58;100.00;93019.84;5024412;28;20191;-59
2023/08/02 09:15:04;;;;;;;1999.90;999.90;;;;;;;17.53;100.00;93021.38;5023573;28;20194;-58
2023/08/02 09:17:49;;;;;;;1999.90;999.90;;;;;;;17.40;100.00;93026.63;5023913;28;20198;-59
2023/08/02 09:20:15;;;;;;;1999.90;999.90;;;;;;;17.62;100.00;93014.81;5023573;28;20241;-59
2023/08/02 09:22:41;;;;;;;1999.90;999.90;;;;;;;17.86;100.00;93001.94;5023750;28;20187;-59
2023/08/02 09:25:08;;;;;;;1999.90;999.90;;;;;;;17.94;100.00;93002.16;5023186;28;20203;-59
2023/08/02 09:27:33;;;;;;;1999.90;999.90;;;;;;;17.76;100.00;93024.81;5023934;28;20194;-59
2023/08/02 09:29:59;;;;;;;1999.90;999.90;;;;;;;17.59;100.00;93043.44;5024223;28;20198;-59
2023/08/02 09:32:25;;;;;;;1999.90;999.90;;;;;;;17.48;100.00;93049.00;5023672;28;20269;-58
2023/08/02 09:34:54;;;;;;;1999.90;999.90;;;;;;;17.47;100.00;93047.47;5025409;28;20190;-59
2023/08/02 09:37:36;;;;;;;1999.90;999.90;;;;;;;17.46;100.00;93040.44;5027192;28;20210;-58
2023/08/02 09:40:04;;;;;;;1999.90;999.90;;;;;;;17.48;100.00;93033.16;5027496;28;20230;-58
2023/08/02 09:42:30;;;;;;;1999.90;999.90;;;;;;;17.39;100.00;93018.84;5027453;28;20183;-58
2023/08/02 09:45:01;;;;;;;1999.90;999.90;;;;;;;17.16;100.00;93033.94;5026911;28;20207;-58
2023/08/02 09:47:27;;;;;;;1999.90;999.90;;;;;;;17.19;100.00;93025.41;5027563;28;20290;-58
2023/08/02 09:50:03;;;;;;;1999.90;999.90;;;;;;;17.09;100.00;93015.91;5027144;28;20217;-57
2023/08/02 09:52:29;;;;;;;1999.90;999.90;;;;;;;16.95;100.00;93013.38;5027235;28;20186;-58
2023/08/02 09:54:54;;;;;;;1999.90;999.90;;;;;;;16.90;100.00;93003.13;5026926;28;20195;-61
2023/08/02 09:57:30;;;;;;;1999.90;999.90;;;;;;;16.99;100.00;92983.56;5026757;28;20214;-59
2023/08/02 10:00:02;;;;;;;1999.90;999.90;;;;;;;17.04;100.00;92983.53;5027239;28;20193;-59
2023/08/02 10:02:29;;;;;;;1999.90;999.90;;;;;;;16.98;100.00;93002.13;5027032;28;20236;-58
2023/08/02 10:04:56;;;;;;;1999.90;999.90;;;;;;;16.93;100.00;93005.63;5026406;28;20238;-59
2023/08/02 10:07:31;;;;;;;1999.90;999.90;;;;;;;16.80;100.00;92996.34;5026593;28;20195;-60
2023/08/02 10:10:02;;;;;;;1999.90;999.90;;;;;;;16.77;100.00;92976.06;5027010;28;20277;-57
2023/08/02 10:12:29;;;;;;;1999.90;999.90;;;;;;;16.80;100.00;92968.78;5026888;28;20179;-56
2023/08/02 10:14:57;;;;;;;1999.90;999.90;;;;;;;16.65;100.00;93081.28;5026780;28;20199;-58
2023/08/02 10:17:24;;;;;;;1999.90;999.90;;;;;;;16.64;100.00;93107.34;5026691;28;20206;-60
2023/08/02 10:19:50;;;;;;;1999.90;999.90;;;;;;;16.52;100.00;93114.06;5026613;28;20207;-58
2023/08/02 10:22:17;;;;;;;1999.90;999.90;;;;;;;16.47;100.00;93112.06;5026548;28;20202;-58
2023/08/02 10:24:44;;;;;;;1999.90;999.90;;;;;;;16.48;100.00;93108.03;5026402;28;20257;-57
2023/08/02 10:27:10;;;;;;;1999.90;999.90;;;;;;;16.38;100.00;93116.50;5026301;28;20210;-59
2023/08/02 10:29:37;;;;;;;1999.90;999.90;;;;;;;16.41;100.00;93114.75;5026078;28;20198;-59
2023/08/02 10:32:18;;;;;;;1999.90;999.90;;;;;;;16.38;100.00;93108.25;5026107;28;20199;-59
2023/08/02 10:34:48;;;;;;;1999.90;999.90;;;;;;;16.33;100.00;93092.44;5026248;28;20195;-58
2023/08/02 10:37:14;;;;;;;1999.90;999.90;;;;;;;16.27;100.00;93077.91;5025968;28;20183;-59
2023/08/02 10:39:45;;;;;;;1999.90;999.90;;;;;;;16.28;100.00;93057.38;5026338;28;20202;-59
2023/08/02 10:42:37;;;;;;;1999.90;999.90;;;;;;;16.36;100.00;93032.84;5026381;28;20273;-58
2023/08/02 10:45:13;;;;;;;1999.90;999.90;;;;;;;16.43;100.00;93038.66;5022659;28;20231;-58